• Join FlightAware (Why Join?)
  • Login
  • US Flag 
Rudolph Flight #1: Arrived! 
05:39PM EST


 

Airport Tracker/Info


-or-


 

Live Flight TrackerFlight Track Log ✈ N50906 ✈ 25-Jul-2014 ✈ KCOU - KUUV

Flight Track Log - Related Links

Times and Time Zones

All times are in EDT time to prevent confusion due to time zone crossing. See the N50906 flight status page for this flight to view local times or setup timezone preferences in your user account.

Time Position Orientation Groundspeed Altitude Reporting Facility
EDT Latitude Longitude Course Direction KTS MPH feet Rate Location/Type
06:22PM 38.6756 -91.9768 124° Southeast  Level FlightAware Approximate
06:23PM 38.6535 -91.9355 124° Southeast  Level FlightAware Approximate
06:24PM 38.6315 -91.8942 124° Southeast  Level FlightAware Approximate
06:25PM 38.6094 -91.8529 124° Southeast  Level FlightAware Approximate
06:26PM 38.5873 -91.8116 124° Southeast  Level FlightAware Approximate
06:27PM 38.5651 -91.7703 124° Southeast  Level FlightAware Approximate
06:28PM 38.5430 -91.7291 124° Southeast  Level FlightAware Approximate
06:29PM 38.5209 -91.6879 124° Southeast  Level FlightAware Approximate
06:30PM 38.4987 -91.6468 125° Southeast  Level FlightAware Approximate
06:31PM 38.4765 -91.6056 125° Southeast  Level FlightAware Approximate
06:32PM 38.4543 -91.5645 125° Southeast  Level FlightAware Approximate
06:33PM 38.4321 -91.5234 125° Southeast  Level FlightAware Approximate
06:34PM 38.4099 -91.4823 125° Southeast  Level FlightAware Approximate
06:35PM 38.3876 -91.4413 125° Southeast  Level FlightAware Approximate
06:36PM 38.3642 -91.4014 127° Southeast  Level FlightAware Approximate
06:37PM 38.3405 -91.3618 127° Southeast  Level FlightAware Approximate
06:38PM 38.3167 -91.3222 127° Southeast  Level FlightAware Approximate
06:39PM 38.2929 -91.2826 127° Southeast  Level FlightAware Approximate
06:40PM 38.2708 -91.2416 122° Southeast  Level FlightAware Approximate
06:41PM 38.2499 -91.1995 113° Southeast  Level FlightAware Approximate
06:42PM 38.2346 -91.1537 113° Southeast  Level FlightAware Approximate
06:43PM 38.2333 -91.1500 113° Southeast  Level FlightAware Approximate
06:44PM 38.2335 -91.1643 North  Level Estimated
06:45PM 38.2335 -91.1643 113° Southeast  Level Estimated
06:46PM 38.2335 -91.1643 91° East  Level Estimated
06:47PM 38.2335 -91.1643 113° Southeast  Level Estimated
06:48PM 38.2335 -91.1643 91° East  Level Estimated
06:49PM 38.2335 -91.1643 113° Southeast  Level Estimated
06:50PM 38.2335 -91.1643 91° East  Level Estimated
06:51PM 38.2335 -91.1643 113° Southeast  Level Estimated
06:52PM 38.2335 -91.1643 91° East  Level Estimated
06:53PM 38.2335 -91.1643 113° Southeast  Level Estimated
06:54PM 38.2335 -91.1643 91° East  Level Estimated
06:55PM 38.2335 -91.1643 113° Southeast  Level Estimated
06:56PM 38.2335 -91.1643 91° East  Level Estimated
06:57PM 38.2335 -91.1643 113° Southeast  Level Estimated
06:58PM 38.2335 -91.1643 91° East  Level Estimated